createdAt,value
2023-09-21T00:02:07.782Z,100016.53
2023-09-21T00:05:10.864Z,100010.78
2023-09-21T00:08:14.207Z,100013.16
2023-09-21T00:11:18.063Z,100007.06
2023-09-21T00:14:20.793Z,100004.34
2023-09-21T00:17:24.139Z,100005.84
2023-09-21T00:20:37.739Z,100009.53
2023-09-21T00:23:41.042Z,100013.06
2023-09-21T00:26:48.605Z,100006.37
2023-09-21T00:29:51.858Z,100007.59
2023-09-21T00:32:54.933Z,99999.34
2023-09-21T00:36:01.267Z,100002.38
2023-09-21T00:39:05.242Z,100004.38
2023-09-21T00:42:08.461Z,99999.41
2023-09-21T00:45:11.567Z,99995.53
2023-09-21T00:48:15.358Z,99990.91
2023-09-21T00:51:18.648Z,99999.34
2023-09-21T00:54:22.773Z,99988.53
2023-09-21T00:57:25.954Z,99994.16
2023-09-21T01:00:31.990Z,99991.69
2023-09-21T01:03:39.576Z,99992.59
2023-09-21T01:06:44.069Z,99991.88
2023-09-21T01:09:47.072Z,99994.25
2023-09-21T01:12:52.534Z,99986.69
2023-09-21T01:16:03.022Z,99980.63
2023-09-21T01:19:06.300Z,99979.13
2023-09-21T01:22:13.397Z,99981.84
2023-09-21T01:25:16.944Z,99976.75
2023-09-21T01:28:24.567Z,99975.50
2023-09-21T01:31:28.575Z,99979.66
2023-09-21T01:34:32.511Z,99974.56
2023-09-21T01:37:36.831Z,99970.44
2023-09-21T01:40:41.542Z,99959.69
2023-09-21T01:43:46.092Z,99958.22
2023-09-21T01:46:51.343Z,99960.84
2023-09-21T01:49:55.109Z,99954.59
2023-09-21T01:52:58.033Z,99952.25
2023-09-21T01:56:01.270Z,99946.16
2023-09-21T01:59:05.231Z,99948.97
2023-09-21T02:02:08.298Z,99952.16
2023-09-21T02:05:12.268Z,99944.75
2023-09-21T02:08:19.266Z,99944.84
2023-09-21T02:11:22.460Z,99939.31
2023-09-21T02:14:25.277Z,99936.84
2023-09-21T02:17:28.991Z,99935.59
2023-09-21T02:20:33.367Z,99926.50
2023-09-21T02:23:38.967Z,99922.44
2023-09-21T02:26:44.231Z,99926.41
2023-09-21T02:29:48.211Z,99924.97
2023-09-21T02:32:57.353Z,99917.34
2023-09-21T02:36:02.749Z,99911.97
2023-09-21T02:39:13.040Z,99904.53
2023-09-21T02:42:16.364Z,99905.38
2023-09-21T02:45:22.595Z,99899.94
2023-09-21T02:48:26.723Z,99903.81
2023-09-21T02:51:30.175Z,99902.03
2023-09-21T02:54:33.749Z,99905.72
2023-09-21T02:57:36.805Z,99906.53
2023-09-21T03:00:44.628Z,99888.06
2023-09-21T03:03:48.042Z,99894.66
2023-09-21T03:06:53.224Z,99894.56
2023-09-21T03:09:56.377Z,99896.13
2023-09-21T03:12:59.846Z,99892.34
2023-09-21T03:16:06.759Z,99883.06
2023-09-21T03:19:09.683Z,99881.91
2023-09-21T03:22:14.958Z,99875.25
2023-09-21T03:25:17.767Z,99872.50
2023-09-21T03:28:24.463Z,99873.53
2023-09-21T03:31:27.711Z,99868.47
2023-09-21T03:34:30.853Z,99868.47
2023-09-21T03:37:33.839Z,99860.72
2023-09-21T03:40:36.927Z,99860.09
2023-09-21T03:43:39.695Z,99858.78
2023-09-21T03:46:43.008Z,99856.91
2023-09-21T03:49:45.868Z,99859.88
2023-09-21T03:52:50.199Z,99854.28
2023-09-21T03:55:53.060Z,99843.41
2023-09-21T03:58:57.974Z,99853.59
2023-09-21T04:02:02.830Z,99850.59
2023-09-21T04:05:08.843Z,99850.47
2023-09-21T04:08:12.000Z,99847.56
2023-09-21T04:11:15.208Z,99845.41
2023-09-21T04:14:19.187Z,99838.97
2023-09-21T04:17:22.396Z,99833.00
2023-09-21T04:20:25.279Z,99839.06
2023-09-21T04:23:29.527Z,99842.44
2023-09-21T04:26:32.641Z,99839.41
2023-09-21T04:29:35.734Z,99840.59
2023-09-21T04:32:40.181Z,99835.03
2023-09-21T04:35:43.444Z,99827.06
2023-09-21T04:38:49.473Z,99829.53
2023-09-21T04:41:52.743Z,99837.88
2023-09-21T04:44:56.546Z,99838.25
2023-09-21T04:48:05.501Z,99830.22
2023-09-21T04:51:14.500Z,99829.41
2023-09-21T04:54:18.547Z,99829.09
2023-09-21T04:57:22.412Z,99829.88
2023-09-21T05:00:25.959Z,99833.25
2023-09-21T05:03:29.064Z,99832.44
2023-09-21T05:06:32.779Z,99828.25
2023-09-21T05:09:35.614Z,99820.38
2023-09-21T05:12:39.053Z,99825.63
2023-09-21T05:15:42.129Z,99829.25
2023-09-21T05:18:46.424Z,99834.97
2023-09-21T05:21:49.457Z,99839.91
2023-09-21T05:24:53.116Z,99827.94
2023-09-21T05:27:56.640Z,99826.37
2023-09-21T05:31:00.288Z,99832.09
2023-09-21T05:34:03.781Z,99823.91
2023-09-21T05:37:07.161Z,99828.66
2023-09-21T05:40:12.999Z,99822.91
2023-09-21T05:43:16.844Z,99820.00
2023-09-21T05:46:19.630Z,99823.50
2023-09-21T05:49:25.881Z,99815.41
2023-09-21T05:52:30.747Z,99812.25
2023-09-21T05:55:33.825Z,99820.25
2023-09-21T05:58:37.518Z,99820.16
2023-09-21T06:01:41.100Z,99823.66
2023-09-21T06:04:45.144Z,99825.13
2023-09-21T06:07:48.310Z,99825.56
2023-09-21T06:10:51.501Z,99831.00
2023-09-21T06:13:55.581Z,99825.75
2023-09-21T06:16:59.327Z,99825.09
2023-09-21T06:20:02.282Z,99823.41
2023-09-21T06:23:08.082Z,99831.97
2023-09-21T06:26:11.719Z,99826.69
2023-09-21T06:29:14.829Z,99822.09
2023-09-21T06:32:19.618Z,99820.88
2023-09-21T06:35:26.517Z,99813.53
2023-09-21T06:38:29.144Z,99813.09
2023-09-21T06:41:32.405Z,99807.78
2023-09-21T06:44:35.976Z,99799.97
2023-09-21T06:47:39.259Z,99792.72
2023-09-21T06:50:42.098Z,99802.31
2023-09-21T06:53:46.508Z,99801.59
2023-09-21T06:56:49.445Z,99795.84
2023-09-21T06:59:55.220Z,99801.31
2023-09-21T07:02:58.173Z,99800.81
2023-09-21T07:06:01.628Z,99804.06
2023-09-21T07:09:05.745Z,99788.59
2023-09-21T07:12:09.162Z,99803.13
2023-09-21T07:15:12.704Z,99801.16
2023-09-21T07:18:16.379Z,99797.84
2023-09-21T07:21:19.424Z,99808.53
2023-09-21T07:24:22.758Z,99798.06
2023-09-21T07:27:26.120Z,99796.09
2023-09-21T07:30:34.411Z,99799.00
2023-09-21T07:33:38.233Z,99809.31
2023-09-21T07:36:41.679Z,99814.75
2023-09-21T07:39:45.520Z,99825.28
2023-09-21T07:42:51.923Z,99823.91
2023-09-21T07:45:55.207Z,99821.91
2023-09-21T07:48:58.542Z,99816.72
2023-09-21T07:52:01.321Z,99825.94
2023-09-21T07:55:05.790Z,99831.94
2023-09-21T07:58:09.079Z,99828.75
2023-09-21T08:01:13.352Z,99832.69
2023-09-21T08:04:18.887Z,99828.19
2023-09-21T08:07:27.789Z,99830.12
2023-09-21T08:10:34.200Z,99828.91
2023-09-21T08:13:37.085Z,99837.94
2023-09-21T08:16:40.436Z,99850.44
2023-09-21T08:19:43.506Z,99849.31
2023-09-21T08:22:49.365Z,99850.63
2023-09-21T08:25:52.629Z,99846.34
2023-09-21T08:28:56.155Z,99849.50
2023-09-21T08:31:59.797Z,99842.00
2023-09-21T08:35:02.895Z,99845.34
2023-09-21T08:38:05.845Z,99843.88
2023-09-21T08:41:09.698Z,99838.81
2023-09-21T08:44:13.072Z,99838.88
2023-09-21T08:47:33.238Z,99831.75
2023-09-21T08:50:39.804Z,99837.19
2023-09-21T08:53:43.598Z,99841.47
2023-09-21T08:56:49.012Z,99834.25
2023-09-21T08:59:56.452Z,99834.25
2023-09-21T09:03:01.304Z,99823.19
2023-09-21T09:06:05.992Z,99844.31
2023-09-21T09:09:09.928Z,99848.16
2023-09-21T09:12:26.927Z,99846.22
2023-09-21T09:15:38.615Z,99846.91
2023-09-21T09:18:42.880Z,99837.56
2023-09-21T09:21:51.368Z,99843.41
2023-09-21T09:24:57.114Z,99839.22
2023-09-21T09:28:03.086Z,99830.63
2023-09-21T09:31:12.555Z,99840.19
2023-09-21T09:34:19.480Z,99821.06
2023-09-21T09:37:22.894Z,99824.59
2023-09-21T09:40:27.337Z,99812.88
2023-09-21T09:43:31.577Z,99815.12
2023-09-21T09:46:43.075Z,99814.00
2023-09-21T09:49:50.577Z,99804.50
2023-09-21T09:53:04.625Z,99795.91
2023-09-21T09:56:11.860Z,99793.06
2023-09-21T09:59:15.539Z,99788.75
2023-09-21T10:02:20.059Z,99773.72
2023-09-21T10:05:28.542Z,99771.59
2023-09-21T10:08:32.201Z,99771.06
2023-09-21T10:11:35.673Z,99781.44
2023-09-21T10:14:43.602Z,99770.75
2023-09-21T10:17:52.074Z,99766.03
2023-09-21T10:21:01.403Z,99762.97
2023-09-21T10:24:14.118Z,99760.00
2023-09-21T10:27:17.097Z,99745.91
2023-09-21T10:30:24.685Z,99739.97
2023-09-21T10:33:27.604Z,99733.31
2023-09-21T10:36:32.109Z,99738.69
2023-09-21T10:39:35.340Z,99749.84
2023-09-21T10:42:38.873Z,99736.50
2023-09-21T10:46:18.135Z,99741.84
2023-09-21T10:49:24.629Z,99743.28
2023-09-21T10:52:31.392Z,99739.34
2023-09-21T10:55:36.378Z,99735.09
2023-09-21T10:58:39.176Z,99724.06
2023-09-21T11:01:43.152Z,99712.50
2023-09-21T11:04:48.114Z,99695.06
2023-09-21T11:07:53.155Z,99685.09
2023-09-21T11:10:56.442Z,99673.75
2023-09-21T11:14:00.554Z,99667.31
2023-09-21T11:17:03.878Z,99672.75
2023-09-21T11:20:09.824Z,99669.22
2023-09-21T11:23:13.589Z,99649.91
2023-09-21T11:26:17.061Z,99639.19
2023-09-21T11:29:20.792Z,99631.47
2023-09-21T11:32:24.423Z,99609.91
2023-09-21T11:35:27.946Z,99616.94
2023-09-21T11:38:34.879Z,99603.59
2023-09-21T11:41:38.729Z,99598.94
2023-09-21T11:44:42.561Z,99603.13
2023-09-21T11:47:53.849Z,99589.87
2023-09-21T11:50:57.171Z,99588.91
2023-09-21T11:54:01.451Z,99589.97
2023-09-21T11:57:06.688Z,99594.72
2023-09-21T12:00:14.933Z,99592.84
2023-09-21T12:03:21.621Z,99572.34
2023-09-21T12:06:29.059Z,99568.47
2023-09-21T12:09:32.903Z,99567.97
2023-09-21T12:12:36.014Z,99573.44
2023-09-21T12:15:43.396Z,99569.78
2023-09-21T12:18:46.546Z,99573.50
2023-09-21T12:21:49.972Z,99570.84
2023-09-21T12:24:52.790Z,99565.16
2023-09-21T12:27:56.074Z,99559.34
2023-09-21T12:30:59.226Z,99560.63
2023-09-21T12:34:04.032Z,99564.34
2023-09-21T12:37:06.901Z,99571.91
2023-09-21T12:40:14.208Z,99566.72
2023-09-21T12:43:17.582Z,99560.81
2023-09-21T12:46:21.043Z,99557.91
2023-09-21T12:49:23.815Z,99545.97
2023-09-21T12:52:27.078Z,99542.91
2023-09-21T12:55:30.998Z,99526.78
2023-09-21T12:58:34.725Z,99532.03
2023-09-21T13:01:38.729Z,99535.63
2023-09-21T13:04:43.447Z,99526.06
2023-09-21T13:07:49.854Z,99533.28
2023-09-21T13:10:53.292Z,99524.12
2023-09-21T13:13:56.140Z,99520.81
2023-09-21T13:17:01.085Z,99513.94
2023-09-21T13:20:06.985Z,99523.00
2023-09-21T13:23:10.471Z,99514.44
2023-09-21T13:26:14.237Z,99508.25
2023-09-21T13:29:19.735Z,99505.25
2023-09-21T13:32:24.942Z,99496.94
2023-09-21T13:35:27.929Z,99502.78
2023-09-21T13:38:30.885Z,99489.94
2023-09-21T13:41:34.453Z,99500.19
2023-09-21T13:44:37.365Z,99485.56
2023-09-21T13:47:41.159Z,99487.38
2023-09-21T13:50:44.292Z,99502.12
2023-09-21T13:53:47.420Z,99485.22
2023-09-21T13:56:50.971Z,99486.00
2023-09-21T13:59:56.216Z,99493.47
2023-09-21T14:02:59.420Z,99486.88
2023-09-21T14:06:03.291Z,99482.56
2023-09-21T14:09:06.224Z,99479.09
2023-09-21T14:12:09.502Z,99480.28
2023-09-21T14:15:12.528Z,99465.44
2023-09-21T14:18:16.862Z,99475.87
2023-09-21T14:21:23.064Z,99471.50
2023-09-21T14:24:26.422Z,99463.06
2023-09-21T14:27:29.492Z,99467.06
2023-09-21T14:30:33.488Z,99467.34
2023-09-21T14:33:36.967Z,99467.66
2023-09-21T14:36:42.692Z,99460.63
2023-09-21T14:39:45.919Z,99465.41
2023-09-21T14:42:49.333Z,99459.97
2023-09-21T14:45:52.366Z,99468.28
2023-09-21T14:48:56.037Z,99463.50
2023-09-21T14:51:59.283Z,99457.28
2023-09-21T14:55:02.463Z,99455.75
2023-09-21T14:58:05.244Z,99459.94
2023-09-21T15:01:09.587Z,99442.16
2023-09-21T15:04:12.572Z,99449.28
2023-09-21T15:07:17.051Z,99441.44
2023-09-21T15:10:19.872Z,99443.00
2023-09-21T15:13:23.381Z,99425.62
2023-09-21T15:16:26.803Z,99423.97
2023-09-21T15:19:30.606Z,99423.19
2023-09-21T15:22:33.695Z,99419.97
2023-09-21T15:25:37.256Z,99415.38
2023-09-21T15:28:40.217Z,99418.41
2023-09-21T15:31:43.724Z,99409.84
2023-09-21T15:34:50.274Z,99407.09
2023-09-21T15:37:56.462Z,99404.59
2023-09-21T15:40:59.602Z,99401.69
2023-09-21T15:44:04.494Z,99395.84
2023-09-21T15:50:16.482Z,99397.75
2023-09-21T15:53:20.951Z,99396.88
2023-09-21T15:56:24.251Z,99392.88
2023-09-21T15:59:28.558Z,99400.31
2023-09-21T16:02:32.531Z,99401.09
2023-09-21T16:05:37.723Z,99398.66
2023-09-21T16:08:41.322Z,99391.72
2023-09-21T16:11:45.020Z,99393.00
2023-09-21T16:14:49.242Z,99398.00
2023-09-21T16:17:54.326Z,99390.84
2023-09-21T16:20:57.909Z,99386.53
2023-09-21T16:24:02.049Z,99384.34
2023-09-21T16:27:05.907Z,99381.22
2023-09-21T16:30:10.924Z,99378.28
2023-09-21T16:33:14.803Z,99381.78
2023-09-21T16:36:21.387Z,99367.34
2023-09-21T16:39:26.379Z,99370.38
2023-09-21T16:42:30.739Z,99373.97
2023-09-21T16:45:40.507Z,99374.34
2023-09-21T16:48:45.921Z,99372.12
2023-09-21T16:51:49.784Z,99367.34
2023-09-21T16:54:54.539Z,99366.34
2023-09-21T16:57:58.629Z,99362.75
2023-09-21T17:01:02.236Z,99374.97
2023-09-21T17:04:07.059Z,99389.41
2023-09-21T17:07:13.184Z,99422.16
2023-09-21T17:10:16.568Z,99431.66
2023-09-21T17:13:22.093Z,99445.31
2023-09-21T17:16:30.022Z,99446.13
2023-09-21T17:19:34.042Z,99436.22
2023-09-21T17:22:38.483Z,99433.09
2023-09-21T17:25:42.110Z,99429.81
2023-09-21T17:28:45.497Z,99430.59
2023-09-21T17:31:49.675Z,99422.09
2023-09-21T17:34:54.460Z,99427.44
2023-09-21T17:37:58.218Z,99430.13
2023-09-21T17:41:05.124Z,99427.44
2023-09-21T17:44:09.495Z,99432.97
2023-09-21T17:47:14.197Z,99429.69
2023-09-21T17:50:19.052Z,99421.25
2023-09-21T17:53:22.816Z,99412.44
2023-09-21T17:56:27.774Z,99414.66
2023-09-21T17:59:32.045Z,99415.91
2023-09-21T18:02:37.771Z,99418.12
2023-09-21T18:05:42.295Z,99418.44
2023-09-21T18:08:46.863Z,99407.59
2023-09-21T18:11:52.009Z,99410.94
2023-09-21T18:14:56.844Z,99399.91
2023-09-21T18:18:02.423Z,99406.34
2023-09-21T18:21:08.966Z,99405.25
2023-09-21T18:24:14.264Z,99405.13
2023-09-21T18:27:18.905Z,99406.09
2023-09-21T18:30:25.292Z,99409.72
2023-09-21T18:33:30.239Z,99410.31
2023-09-21T18:36:36.715Z,99413.13
2023-09-21T18:39:40.924Z,99409.84
2023-09-21T18:42:49.879Z,99403.56
2023-09-21T18:45:54.876Z,99409.84
2023-09-21T18:49:02.337Z,99405.59
2023-09-21T18:52:09.293Z,99409.38
2023-09-21T18:55:16.018Z,99405.44
2023-09-21T18:58:22.335Z,99397.13
2023-09-21T19:01:27.930Z,99388.34
2023-09-21T19:04:33.798Z,99391.50
2023-09-21T19:07:44.262Z,99396.97
2023-09-21T19:10:49.125Z,99407.00
2023-09-21T19:13:58.052Z,99404.94
2023-09-21T19:17:04.867Z,99411.22
2023-09-21T19:20:11.890Z,99410.88
2023-09-21T19:23:17.735Z,99419.19
2023-09-21T19:26:26.104Z,99419.84
2023-09-21T19:29:30.504Z,99420.31
2023-09-21T19:32:36.701Z,99425.03
2023-09-21T19:35:41.049Z,99417.84
2023-09-21T19:38:46.787Z,99422.25
2023-09-21T19:41:50.998Z,99430.13
2023-09-21T19:44:57.944Z,99427.56
2023-09-21T19:48:02.112Z,99433.53
2023-09-21T19:51:07.274Z,99428.50
2023-09-21T19:54:12.875Z,99442.78
2023-09-21T19:57:17.709Z,99447.97
2023-09-21T20:00:24.655Z,99437.78
2023-09-21T20:03:31.478Z,99439.97
2023-09-21T20:06:36.112Z,99447.66
2023-09-21T20:09:41.845Z,99445.09
2023-09-21T20:12:46.809Z,99444.50
2023-09-21T20:15:51.343Z,99436.94
2023-09-21T20:18:55.619Z,99432.25
2023-09-21T20:22:00.216Z,99437.41
2023-09-21T20:25:04.618Z,99435.69
2023-09-21T20:28:08.857Z,99435.31
2023-09-21T20:31:12.132Z,99435.28
2023-09-21T20:34:16.622Z,99439.00
2023-09-21T20:37:21.723Z,99437.09
2023-09-21T20:40:26.080Z,99438.50
2023-09-21T20:43:28.978Z,99430.78
2023-09-21T20:46:33.459Z,99435.47
2023-09-21T20:49:36.321Z,99441.72
2023-09-21T20:52:39.842Z,99436.16
2023-09-21T20:55:45.645Z,99436.00
2023-09-21T20:58:51.438Z,99434.22
2023-09-21T21:01:54.317Z,99424.41
2023-09-21T21:04:57.404Z,99427.38
2023-09-21T21:08:00.383Z,99419.19
2023-09-21T21:11:03.450Z,99422.97
2023-09-21T21:14:06.238Z,99426.81
2023-09-21T21:17:10.142Z,99434.94
2023-09-21T21:20:13.040Z,99424.72
2023-09-21T21:23:16.455Z,99429.69
2023-09-21T21:26:19.276Z,99416.56
2023-09-21T21:29:22.744Z,99413.38
2023-09-21T21:32:25.809Z,99411.50
2023-09-21T21:35:28.847Z,99402.72
2023-09-21T21:38:31.645Z,99403.19
2023-09-21T21:41:34.775Z,99401.28
2023-09-21T21:44:37.690Z,99396.53
2023-09-21T21:47:42.282Z,99394.97
2023-09-21T21:50:45.158Z,99405.72
2023-09-21T21:53:48.374Z,99405.53
2023-09-21T21:56:51.999Z,99397.84
2023-09-21T21:59:55.169Z,99392.50
2023-09-21T22:02:59.915Z,99388.97
2023-09-21T22:06:03.385Z,99385.19
2023-09-21T22:09:06.425Z,99391.16
2023-09-21T22:12:12.801Z,99390.81
2023-09-21T22:15:16.273Z,99397.81
2023-09-21T22:21:23.868Z,99400.31
2023-09-21T22:24:27.041Z,99388.81
2023-09-21T22:27:29.858Z,99392.69
2023-09-21T22:30:32.992Z,99387.50
2023-09-21T22:33:35.901Z,99381.66
2023-09-21T22:36:39.381Z,99382.13
2023-09-21T22:39:42.173Z,99369.09
2023-09-21T22:42:49.522Z,99377.44
2023-09-21T22:45:53.052Z,99380.25
2023-09-21T22:48:59.266Z,99385.31
2023-09-21T22:52:02.185Z,99372.94
2023-09-21T22:55:05.528Z,99378.00
2023-09-21T22:58:08.440Z,99380.47
2023-09-21T23:01:11.913Z,99377.09
2023-09-21T23:04:14.881Z,99381.78
2023-09-21T23:07:19.170Z,99378.97
2023-09-21T23:10:23.088Z,99381.38
2023-09-21T23:13:26.345Z,99381.38
2023-09-21T23:16:29.191Z,99374.63
2023-09-21T23:19:32.295Z,99376.66
2023-09-21T23:22:35.034Z,99374.75
2023-09-21T23:25:37.996Z,99374.44
2023-09-21T23:28:41.969Z,99369.69
2023-09-21T23:31:46.240Z,99367.81
2023-09-21T23:34:49.118Z,99378.72
2023-09-21T23:37:52.245Z,99377.13
2023-09-21T23:40:55.001Z,99379.75
2023-09-21T23:43:58.125Z,99372.22
2023-09-21T23:47:00.930Z,99378.50
2023-09-21T23:50:04.380Z,99380.31
2023-09-21T23:53:07.828Z,99376.81
2023-09-21T23:56:12.412Z,99366.94
2023-09-21T23:59:16.125Z,99378.53
